createdAt,value
2022-12-12T00:00:35.930Z,3.40
2022-12-12T00:01:46.471Z,3.30
2022-12-12T00:02:48.837Z,3.03
2022-12-12T00:03:53.023Z,2.90
2022-12-12T00:04:58.101Z,2.40
2022-12-12T00:06:05.044Z,2.33
2022-12-12T00:07:07.533Z,2.33
2022-12-12T00:08:11.402Z,2.08
2022-12-12T00:09:14.042Z,1.80
2022-12-12T00:10:17.385Z,2.13
2022-12-12T00:11:20.038Z,2.22
2022-12-12T00:12:23.465Z,2.30
2022-12-12T00:13:25.743Z,3.00
2022-12-12T00:14:28.921Z,3.73
2022-12-12T00:15:31.190Z,3.67
2022-12-12T00:16:34.583Z,2.90
2022-12-12T00:17:36.786Z,3.03
2022-12-12T00:18:40.754Z,2.45
2022-12-12T00:19:44.671Z,2.33
2022-12-12T00:20:51.865Z,2.60
2022-12-12T00:21:55.126Z,2.40
2022-12-12T00:22:57.344Z,2.30
2022-12-12T00:24:00.732Z,2.45
2022-12-12T00:25:02.951Z,2.17
2022-12-12T00:26:08.691Z,2.20
2022-12-12T00:27:11.049Z,2.17
2022-12-12T00:28:14.627Z,2.25
2022-12-12T00:29:17.983Z,1.95
2022-12-12T00:30:20.386Z,2.53
2022-12-12T00:31:23.898Z,1.98
2022-12-12T00:32:26.560Z,2.30
2022-12-12T00:33:29.835Z,2.50
2022-12-12T00:34:32.078Z,2.22
2022-12-12T00:35:35.310Z,1.73
2022-12-12T00:36:40.388Z,2.15
2022-12-12T00:37:42.812Z,1.75
2022-12-12T00:38:46.591Z,2.20
2022-12-12T00:39:49.363Z,1.85
2022-12-12T00:40:58.426Z,2.00
2022-12-12T00:42:01.791Z,1.88
2022-12-12T00:43:04.089Z,1.90
2022-12-12T00:44:07.661Z,1.80
2022-12-12T00:45:11.154Z,1.98
2022-12-12T00:46:17.056Z,2.00
2022-12-12T00:47:19.306Z,1.90
2022-12-12T00:48:22.895Z,2.15
2022-12-12T00:49:25.410Z,2.10
2022-12-12T00:50:28.984Z,1.88
2022-12-12T00:51:31.321Z,2.10
2022-12-12T00:52:35.964Z,1.90
2022-12-12T00:53:39.504Z,2.03
2022-12-12T00:54:42.888Z,1.90
2022-12-12T00:55:45.270Z,1.80
2022-12-12T00:56:48.568Z,3.00
2022-12-12T00:57:51.155Z,2.00
2022-12-12T00:58:54.773Z,2.00
2022-12-12T00:59:59.601Z,2.30
2022-12-12T01:01:06.621Z,1.88
2022-12-12T01:02:09.955Z,1.73
2022-12-12T01:03:12.175Z,2.65
2022-12-12T01:04:15.719Z,2.00
2022-12-12T01:05:18.612Z,2.20
2022-12-12T01:06:22.397Z,2.10
2022-12-12T01:07:24.918Z,2.37
2022-12-12T01:08:29.722Z,2.10
2022-12-12T01:09:33.883Z,2.50
2022-12-12T01:10:36.326Z,2.10
2022-12-12T01:11:39.898Z,2.22
2022-12-12T01:12:42.624Z,2.22
2022-12-12T01:13:47.119Z,2.40
2022-12-12T01:14:49.315Z,2.10
2022-12-12T01:15:52.711Z,2.58
2022-12-12T01:16:55.030Z,2.20
2022-12-12T01:17:58.386Z,2.30
2022-12-12T01:19:01.297Z,2.15
2022-12-12T01:20:06.084Z,2.20
2022-12-12T01:21:09.649Z,2.50
2022-12-12T01:22:13.225Z,2.28
2022-12-12T01:23:16.341Z,2.15
2022-12-12T01:24:20.983Z,2.45
2022-12-12T01:25:23.872Z,2.22
2022-12-12T01:26:27.149Z,2.53
2022-12-12T01:27:29.399Z,2.47
2022-12-12T01:28:32.943Z,2.17
2022-12-12T01:29:35.771Z,1.98
2022-12-12T01:30:39.357Z,2.78
2022-12-12T01:31:42.881Z,2.20
2022-12-12T01:32:45.511Z,2.40
2022-12-12T01:33:49.236Z,2.30
2022-12-12T01:34:51.685Z,2.85
2022-12-12T01:35:56.622Z,2.53
2022-12-12T01:36:58.867Z,2.15
2022-12-12T01:38:02.239Z,2.45
2022-12-12T01:39:05.833Z,2.20
2022-12-12T01:40:17.396Z,2.65
2022-12-12T01:41:21.295Z,2.42
2022-12-12T01:42:24.705Z,2.22
2022-12-12T01:43:30.734Z,2.47
2022-12-12T01:44:45.814Z,2.72
2022-12-12T01:46:36.929Z,2.55
2022-12-12T01:47:39.260Z,2.60
2022-12-12T01:48:47.162Z,2.10
2022-12-12T01:49:54.993Z,2.50
2022-12-12T01:51:00.220Z,2.93
2022-12-12T01:52:07.142Z,2.90
2022-12-12T01:53:10.019Z,2.70
2022-12-12T01:54:18.366Z,2.83
2022-12-12T01:55:24.904Z,3.00
2022-12-12T01:56:27.548Z,2.50
2022-12-12T01:57:35.786Z,3.38
2022-12-12T01:58:39.809Z,2.80
2022-12-12T01:59:44.037Z,3.22
2022-12-12T02:00:46.641Z,2.63
2022-12-12T02:01:50.688Z,2.90
2022-12-12T02:02:55.947Z,3.10
2022-12-12T02:04:00.720Z,3.30
2022-12-12T02:05:12.454Z,3.00
2022-12-12T02:06:20.019Z,3.03
2022-12-12T02:07:22.388Z,2.85
2022-12-12T02:08:27.049Z,3.47
2022-12-12T02:09:30.631Z,3.08
2022-12-12T02:10:34.455Z,3.42
2022-12-12T02:11:43.367Z,3.13
2022-12-12T02:12:46.245Z,2.80
2022-12-12T02:13:50.610Z,3.00
2022-12-12T02:14:55.045Z,3.03
2022-12-12T02:16:08.110Z,3.45
2022-12-12T02:18:03.688Z,4.75
2022-12-12T02:19:32.949Z,3.30
2022-12-12T02:20:52.406Z,3.15
2022-12-12T02:22:02.391Z,3.05
2022-12-12T02:23:38.789Z,3.03
2022-12-12T02:25:02.244Z,2.88
2022-12-12T02:26:32.332Z,2.97
2022-12-12T02:27:56.518Z,2.85
2022-12-12T02:29:27.896Z,3.60
2022-12-12T02:30:43.378Z,2.72
2022-12-12T02:31:52.856Z,2.75
2022-12-12T02:33:32.023Z,2.60
2022-12-12T02:34:39.718Z,2.90
2022-12-12T02:35:54.527Z,2.40
2022-12-12T02:37:08.103Z,2.70
2022-12-12T02:38:21.365Z,2.50
2022-12-12T02:39:32.191Z,2.70
2022-12-12T02:40:39.038Z,2.45
2022-12-12T02:41:45.578Z,3.22
2022-12-12T02:42:54.931Z,3.55
2022-12-12T02:44:09.539Z,2.80
2022-12-12T02:45:17.843Z,2.67
2022-12-12T02:46:29.771Z,2.60
2022-12-12T02:47:37.852Z,2.50
2022-12-12T02:48:49.271Z,2.47
2022-12-12T02:49:55.525Z,2.83
2022-12-12T02:51:02.058Z,2.40
2022-12-12T02:52:05.699Z,2.83
2022-12-12T02:53:09.196Z,2.75
2022-12-12T02:54:15.628Z,3.15
2022-12-12T02:55:19.824Z,3.03
2022-12-12T02:56:45.976Z,2.72
2022-12-12T02:57:51.262Z,2.67
2022-12-12T02:58:53.676Z,2.50
2022-12-12T02:59:59.059Z,2.75
2022-12-12T03:01:23.282Z,2.63
2022-12-12T03:02:52.616Z,2.63
2022-12-12T03:04:18.467Z,2.42
2022-12-12T03:05:53.486Z,2.90
2022-12-12T03:07:23.060Z,2.47
2022-12-12T03:08:42.225Z,3.22
2022-12-12T03:09:59.885Z,2.38
2022-12-12T03:11:07.453Z,2.50
2022-12-12T03:12:16.969Z,2.05
2022-12-12T03:13:30.216Z,2.38
2022-12-12T03:14:42.826Z,3.22
2022-12-12T03:15:58.200Z,2.33
2022-12-12T03:17:07.807Z,2.50
2022-12-12T03:18:24.086Z,2.33
2022-12-12T03:19:30.443Z,2.35
2022-12-12T03:20:41.849Z,2.10
2022-12-12T03:21:49.430Z,2.05
2022-12-12T03:22:56.884Z,2.60
2022-12-12T03:24:05.062Z,2.10
2022-12-12T03:25:15.324Z,2.10
2022-12-12T03:26:25.427Z,2.28
2022-12-12T03:27:33.482Z,1.70
2022-12-12T03:28:40.844Z,2.83
2022-12-12T03:29:47.899Z,2.40
2022-12-12T03:30:55.687Z,2.15
2022-12-12T03:32:06.497Z,2.20
2022-12-12T03:33:17.927Z,2.40
2022-12-12T03:34:26.095Z,2.17
2022-12-12T03:35:34.407Z,2.10
2022-12-12T03:36:42.270Z,2.42
2022-12-12T03:37:52.692Z,2.50
2022-12-12T03:38:59.675Z,2.17
2022-12-12T03:40:06.807Z,2.10
2022-12-12T03:41:15.363Z,2.47
2022-12-12T03:42:24.659Z,2.15
2022-12-12T03:43:29.883Z,1.77
2022-12-12T03:44:41.430Z,2.40
2022-12-12T03:45:52.864Z,2.15
2022-12-12T03:47:02.011Z,1.98
2022-12-12T03:48:09.852Z,2.13
2022-12-12T03:49:19.436Z,1.77
2022-12-12T03:50:23.495Z,2.10
2022-12-12T03:51:30.454Z,2.38
2022-12-12T03:52:38.690Z,2.25
2022-12-12T03:53:45.327Z,1.83
2022-12-12T03:54:52.139Z,2.70
2022-12-12T03:55:59.223Z,2.00
2022-12-12T03:57:06.730Z,2.00
2022-12-12T03:58:15.778Z,1.92
2022-12-12T03:59:27.365Z,2.03
2022-12-12T04:00:37.344Z,2.08
2022-12-12T04:01:44.702Z,2.10
2022-12-12T04:02:52.770Z,2.00
2022-12-12T04:04:00.840Z,2.42
2022-12-12T04:05:36.693Z,2.30
2022-12-12T04:07:04.957Z,1.98
2022-12-12T04:08:12.181Z,2.58
2022-12-12T04:09:34.588Z,1.88
2022-12-12T04:11:10.300Z,2.03
2022-12-12T04:12:37.188Z,1.95
2022-12-12T04:13:50.487Z,1.75
2022-12-12T04:15:13.482Z,1.90
2022-12-12T04:16:22.443Z,2.05
2022-12-12T04:17:33.128Z,2.22
2022-12-12T04:18:41.474Z,2.38
2022-12-12T04:20:12.018Z,2.95
2022-12-12T04:21:48.867Z,2.45
2022-12-12T04:23:15.698Z,3.10
2022-12-12T04:24:27.704Z,2.20
2022-12-12T04:25:57.803Z,3.15
2022-12-12T04:27:06.519Z,2.60
2022-12-12T04:28:08.807Z,2.80
2022-12-12T04:29:33.823Z,3.50
2022-12-12T04:30:37.394Z,2.97
2022-12-12T04:31:46.427Z,2.80
2022-12-12T04:32:53.995Z,2.80
2022-12-12T04:34:02.662Z,3.10
2022-12-12T04:35:11.515Z,3.45
2022-12-12T04:36:17.221Z,3.33
2022-12-12T04:37:25.164Z,3.80
2022-12-12T04:38:27.453Z,3.17
2022-12-12T04:39:31.860Z,2.83
2022-12-12T04:40:38.144Z,3.40
2022-12-12T04:41:44.904Z,3.25
2022-12-12T04:42:55.639Z,3.08
2022-12-12T04:44:00.343Z,3.05
2022-12-12T04:45:08.836Z,2.72
2022-12-12T04:46:15.589Z,2.90
2022-12-12T04:47:20.367Z,3.00
2022-12-12T04:48:28.642Z,3.35
2022-12-12T04:49:34.663Z,3.17
2022-12-12T04:50:38.780Z,2.80
2022-12-12T04:51:45.245Z,2.67
2022-12-12T04:52:55.643Z,3.03
2022-12-12T04:54:02.963Z,2.78
2022-12-12T04:55:12.396Z,2.80
2022-12-12T04:56:20.468Z,2.70
2022-12-12T04:57:29.035Z,3.17
2022-12-12T04:58:31.543Z,2.53
2022-12-12T04:59:35.487Z,3.40
2022-12-12T05:00:45.902Z,3.22
2022-12-12T05:01:55.445Z,2.80
2022-12-12T05:03:04.517Z,2.80
2022-12-12T05:04:15.665Z,3.22
2022-12-12T05:05:22.145Z,3.15
2022-12-12T05:06:31.605Z,2.70
2022-12-12T05:07:40.376Z,3.00
2022-12-12T05:08:47.272Z,2.33
2022-12-12T05:09:50.405Z,2.85
2022-12-12T05:10:56.960Z,2.63
2022-12-12T05:11:59.357Z,2.50
2022-12-12T05:13:02.860Z,2.50
2022-12-12T05:14:08.679Z,2.67
2022-12-12T05:15:12.590Z,2.35
2022-12-12T05:16:19.980Z,2.55
2022-12-12T05:17:28.991Z,2.40
2022-12-12T05:18:31.536Z,2.50
2022-12-12T05:19:34.857Z,2.20
2022-12-12T05:20:37.099Z,2.30
2022-12-12T05:21:40.412Z,2.35
2022-12-12T05:22:42.809Z,2.35
2022-12-12T05:23:47.946Z,2.47
2022-12-12T05:24:50.956Z,2.17
2022-12-12T05:25:54.208Z,2.63
2022-12-12T05:26:56.563Z,2.30
2022-12-12T05:27:59.764Z,2.30
2022-12-12T05:29:07.212Z,2.50
2022-12-12T05:30:12.765Z,2.63
2022-12-12T05:31:15.143Z,2.50
2022-12-12T05:32:18.365Z,2.60
2022-12-12T05:33:20.796Z,2.70
2022-12-12T05:34:24.016Z,2.50
2022-12-12T05:35:27.558Z,2.83
2022-12-12T05:36:29.700Z,2.47
2022-12-12T05:37:32.903Z,2.30
2022-12-12T05:38:35.538Z,2.63
2022-12-12T05:39:40.337Z,2.42
2022-12-12T05:40:43.036Z,2.20
2022-12-12T05:41:46.382Z,2.33
2022-12-12T05:42:48.563Z,2.70
2022-12-12T05:43:52.348Z,2.63
2022-12-12T05:44:54.768Z,2.77
2022-12-12T05:45:58.753Z,2.92
2022-12-12T05:47:01.114Z,2.50
2022-12-12T05:48:04.577Z,2.45
2022-12-12T05:49:08.063Z,2.60
2022-12-12T05:50:10.416Z,2.40
2022-12-12T05:51:13.884Z,2.70
2022-12-12T05:52:17.260Z,2.25
2022-12-12T05:53:19.697Z,2.25
2022-12-12T05:54:23.368Z,2.58
2022-12-12T05:55:26.911Z,2.13
2022-12-12T05:56:30.396Z,2.30
2022-12-12T05:57:32.763Z,2.63
2022-12-12T05:58:36.154Z,2.72
2022-12-12T05:59:39.631Z,4.35
2022-12-12T06:00:41.850Z,2.90
2022-12-12T06:01:45.338Z,2.70
2022-12-12T06:02:47.937Z,2.78
2022-12-12T06:03:51.391Z,2.45
2022-12-12T06:04:53.742Z,2.60
2022-12-12T06:05:57.277Z,2.70
2022-12-12T06:06:59.999Z,2.70
2022-12-12T06:08:03.551Z,2.50
2022-12-12T06:09:06.792Z,2.63
2022-12-12T06:10:09.530Z,2.42
2022-12-12T06:11:14.333Z,2.80
2022-12-12T06:12:17.813Z,2.65
2022-12-12T06:13:21.060Z,3.42
2022-12-12T06:14:24.452Z,3.60
2022-12-12T06:15:26.636Z,2.90
2022-12-12T06:16:29.882Z,2.80
2022-12-12T06:17:33.477Z,2.80
2022-12-12T06:18:37.685Z,2.85
2022-12-12T06:19:39.948Z,2.58
2022-12-12T06:20:43.538Z,2.67
2022-12-12T06:21:45.843Z,2.60
2022-12-12T06:22:53.446Z,3.00
2022-12-12T06:23:57.504Z,3.00
2022-12-12T06:24:59.748Z,2.90
2022-12-12T06:26:03.466Z,2.40
2022-12-12T06:27:07.880Z,2.83
2022-12-12T06:28:11.462Z,2.80
2022-12-12T06:29:15.000Z,3.10
2022-12-12T06:30:17.492Z,2.80
2022-12-12T06:31:20.952Z,3.03
2022-12-12T06:32:23.321Z,2.80
2022-12-12T06:33:27.682Z,2.88
2022-12-12T06:34:30.995Z,3.00
2022-12-12T06:35:34.179Z,3.20
2022-12-12T06:36:37.419Z,2.75
2022-12-12T06:37:41.208Z,3.03
2022-12-12T06:38:43.514Z,2.72
2022-12-12T06:39:47.043Z,3.13
2022-12-12T06:40:49.351Z,2.67
2022-12-12T06:41:52.680Z,3.10
2022-12-12T06:42:56.337Z,2.53
2022-12-12T06:43:59.874Z,2.92
2022-12-12T06:45:02.224Z,2.88
2022-12-12T06:46:07.358Z,2.67
2022-12-12T06:47:10.839Z,3.35
2022-12-12T06:48:13.175Z,3.27
2022-12-12T06:49:17.106Z,3.05
2022-12-12T06:50:23.875Z,2.80
2022-12-12T06:51:29.351Z,3.30
2022-12-12T06:52:32.765Z,3.30
2022-12-12T06:53:35.238Z,3.67
2022-12-12T06:54:38.556Z,3.10
2022-12-12T06:55:45.485Z,2.75
2022-12-12T06:56:48.947Z,2.50
2022-12-12T06:57:51.467Z,2.85
2022-12-12T06:58:56.931Z,2.67
2022-12-12T07:00:00.209Z,3.25
2022-12-12T07:01:02.839Z,3.25
2022-12-12T07:02:07.223Z,3.78
2022-12-12T07:03:13.625Z,3.72
2022-12-12T07:04:17.479Z,3.83
2022-12-12T07:05:21.531Z,3.85
2022-12-12T07:06:24.718Z,3.65
2022-12-12T07:07:28.188Z,3.10
2022-12-12T07:08:30.486Z,2.90
2022-12-12T07:09:34.016Z,3.10
2022-12-12T07:10:37.116Z,3.03
2022-12-12T07:11:41.178Z,3.22
2022-12-12T07:12:47.713Z,3.15
2022-12-12T07:13:50.917Z,3.10
2022-12-12T07:14:55.768Z,3.22
2022-12-12T07:15:58.305Z,3.47
2022-12-12T07:17:01.793Z,3.50
2022-12-12T07:18:04.301Z,3.50
2022-12-12T07:19:07.943Z,2.95
2022-12-12T07:20:10.443Z,3.73
2022-12-12T07:21:17.290Z,2.75
2022-12-12T07:22:20.524Z,2.92
2022-12-12T07:23:22.982Z,3.47
2022-12-12T07:24:26.205Z,3.45
2022-12-12T07:25:28.580Z,3.00
2022-12-12T07:26:31.909Z,3.80
2022-12-12T07:27:35.562Z,3.92
2022-12-12T07:28:38.265Z,4.25
2022-12-12T07:29:41.847Z,4.18
2022-12-12T07:30:48.340Z,3.70
2022-12-12T07:31:51.812Z,4.10
2022-12-12T07:32:55.087Z,3.58
2022-12-12T07:33:58.299Z,3.53
2022-12-12T07:35:00.868Z,3.72
2022-12-12T07:36:04.583Z,4.03
2022-12-12T07:37:07.892Z,3.42
2022-12-12T07:38:12.376Z,3.65
2022-12-12T07:39:20.409Z,4.13
2022-12-12T07:40:23.142Z,4.22
2022-12-12T07:41:26.525Z,3.77
2022-12-12T07:42:29.840Z,3.80
2022-12-12T07:43:33.118Z,3.70
2022-12-12T07:44:36.864Z,4.63
2022-12-12T07:45:39.081Z,4.28
2022-12-12T07:46:44.242Z,4.50
2022-12-12T07:47:48.294Z,4.32
2022-12-12T07:48:50.994Z,4.55
2022-12-12T07:49:54.716Z,4.18
2022-12-12T07:51:00.315Z,4.85
2022-12-12T07:52:03.887Z,4.63
2022-12-12T07:53:07.753Z,4.35
2022-12-12T07:54:11.043Z,4.50
2022-12-12T07:55:13.571Z,4.20
2022-12-12T07:56:18.238Z,4.00
2022-12-12T07:57:21.698Z,3.78
2022-12-12T07:58:25.211Z,4.20
2022-12-12T07:59:28.715Z,4.47
2022-12-12T08:00:31.086Z,4.45
2022-12-12T08:01:34.519Z,4.15
2022-12-12T08:02:38.265Z,4.40
2022-12-12T08:03:42.306Z,4.85
2022-12-12T08:04:44.800Z,4.50
2022-12-12T08:05:48.452Z,4.32
2022-12-12T08:06:57.631Z,4.53
2022-12-12T08:08:04.725Z,4.30
2022-12-12T08:09:08.692Z,4.43
2022-12-12T08:10:11.108Z,3.65
2022-12-12T08:11:17.257Z,4.63
2022-12-12T08:12:20.815Z,4.35
2022-12-12T08:13:24.213Z,4.37
2022-12-12T08:14:28.069Z,4.70
2022-12-12T08:15:30.255Z,4.70
2022-12-12T08:16:33.650Z,4.57
2022-12-12T08:17:37.511Z,4.28
2022-12-12T08:18:41.251Z,4.85
2022-12-12T08:19:45.115Z,4.57
2022-12-12T08:20:48.378Z,4.45
2022-12-12T08:21:52.005Z,4.35
2022-12-12T08:22:55.572Z,4.43
2022-12-12T08:23:59.707Z,3.87
2022-12-12T08:25:02.362Z,5.30
2022-12-12T08:26:07.116Z,4.88
2022-12-12T08:27:15.555Z,5.60
2022-12-12T08:28:19.924Z,4.38
2022-12-12T08:29:23.224Z,4.07
2022-12-12T08:30:26.559Z,5.15
2022-12-12T08:31:30.330Z,4.97
2022-12-12T08:32:33.135Z,5.07
2022-12-12T08:33:38.292Z,5.05
2022-12-12T08:34:41.891Z,4.93
2022-12-12T08:35:44.167Z,5.55
2022-12-12T08:36:48.021Z,5.57
2022-12-12T08:37:51.355Z,6.78
2022-12-12T08:38:53.540Z,5.82
2022-12-12T08:39:56.811Z,5.05
2022-12-12T08:41:03.495Z,4.43
2022-12-12T08:42:07.041Z,4.70
2022-12-12T08:43:09.613Z,5.25
2022-12-12T08:44:13.931Z,6.18
2022-12-12T08:45:16.999Z,5.50
2022-12-12T08:46:21.559Z,5.22
2022-12-12T08:47:24.033Z,5.38
2022-12-12T08:48:27.357Z,5.05
2022-12-12T08:49:32.640Z,4.63
2022-12-12T08:50:35.958Z,5.43
2022-12-12T08:51:39.728Z,5.20
2022-12-12T08:52:42.996Z,5.10
2022-12-12T08:53:46.877Z,4.97
2022-12-12T08:54:50.173Z,4.55
2022-12-12T08:55:53.735Z,4.60
2022-12-12T08:56:56.918Z,4.72
2022-12-12T08:57:59.105Z,4.38
2022-12-12T08:59:02.478Z,4.25
2022-12-12T09:00:06.981Z,4.53
2022-12-12T09:01:12.297Z,4.45
2022-12-12T09:02:16.101Z,5.20
2022-12-12T09:03:23.532Z,4.45
2022-12-12T09:04:32.236Z,4.70
2022-12-12T09:05:36.347Z,4.32
2022-12-12T09:06:38.764Z,4.63
2022-12-12T09:07:42.034Z,4.93
2022-12-12T09:08:45.747Z,4.35
2022-12-12T09:09:47.971Z,4.43
2022-12-12T09:10:51.956Z,4.15
2022-12-12T09:11:55.518Z,4.45
2022-12-12T09:12:59.411Z,4.60
2022-12-12T09:14:03.431Z,4.88
2022-12-12T09:15:09.100Z,4.38
2022-12-12T09:16:12.130Z,4.13
2022-12-12T09:17:15.596Z,3.87
2022-12-12T09:18:18.975Z,4.40
2022-12-12T09:19:22.216Z,4.47
2022-12-12T09:20:27.157Z,4.00
2022-12-12T09:21:30.453Z,4.47
2022-12-12T09:22:33.158Z,4.57
2022-12-12T09:23:36.508Z,5.00
2022-12-12T09:24:38.703Z,6.38
2022-12-12T09:25:42.785Z,4.85
2022-12-12T09:26:46.492Z,5.03
2022-12-12T09:27:49.945Z,4.43
2022-12-12T09:28:53.294Z,5.63
2022-12-12T09:29:57.124Z,4.70
2022-12-12T09:31:00.549Z,5.10
2022-12-12T09:32:06.609Z,5.45
2022-12-12T09:33:10.335Z,4.50
2022-12-12T09:34:13.900Z,4.18
2022-12-12T09:35:17.315Z,4.10
2022-12-12T09:36:21.947Z,4.40
2022-12-12T09:37:25.340Z,4.10
2022-12-12T09:38:29.151Z,3.97
2022-12-12T09:39:33.139Z,4.20
2022-12-12T09:40:41.434Z,3.55
2022-12-12T09:41:44.884Z,4.70
2022-12-12T09:42:49.494Z,4.22
2022-12-12T09:43:58.954Z,3.80
2022-12-12T09:45:06.751Z,3.10
2022-12-12T09:46:17.176Z,3.53
2022-12-12T09:47:31.351Z,3.47
2022-12-12T09:48:42.066Z,3.72
2022-12-12T09:49:49.658Z,3.63
2022-12-12T09:50:53.236Z,3.47
2022-12-12T09:52:00.277Z,3.60
2022-12-12T09:53:06.482Z,3.80
2022-12-12T09:54:14.932Z,3.45
2022-12-12T09:55:31.600Z,3.70
2022-12-12T09:56:43.950Z,3.60
2022-12-12T09:57:58.491Z,3.50
2022-12-12T09:59:08.072Z,3.85
2022-12-12T10:00:14.503Z,3.80
2022-12-12T10:01:26.989Z,3.93
2022-12-12T10:02:43.258Z,3.78
2022-12-12T10:03:57.553Z,3.33
2022-12-12T10:05:04.252Z,3.53
2022-12-12T10:07:43.435Z,3.10
2022-12-12T10:08:55.556Z,3.17
2022-12-12T10:10:04.657Z,3.38
2022-12-12T10:11:32.199Z,3.42
2022-12-12T10:12:36.102Z,3.28
2022-12-12T10:13:39.300Z,3.10
2022-12-12T10:14:46.597Z,3.05
2022-12-12T10:15:53.632Z,3.40
2022-12-12T10:16:58.726Z,3.35
2022-12-12T10:18:06.605Z,3.30
2022-12-12T10:19:14.627Z,2.92
2022-12-12T10:20:23.274Z,3.67
2022-12-12T10:21:30.312Z,3.40
2022-12-12T10:22:39.382Z,3.00
2022-12-12T10:23:47.034Z,3.30
2022-12-12T10:24:54.785Z,3.50
2022-12-12T10:26:00.857Z,3.45
2022-12-12T10:27:11.200Z,3.42
2022-12-12T10:28:17.212Z,3.65
2022-12-12T10:29:22.587Z,3.60
2022-12-12T10:30:26.087Z,3.20
2022-12-12T10:31:41.932Z,3.55
2022-12-12T10:33:01.407Z,3.40
2022-12-12T10:34:20.652Z,3.65
2022-12-12T10:35:30.752Z,3.47
2022-12-12T10:36:49.631Z,3.83
2022-12-12T10:38:03.692Z,4.00
2022-12-12T10:39:16.627Z,3.80
2022-12-12T10:40:35.348Z,3.70
2022-12-12T10:41:49.027Z,3.83
2022-12-12T10:42:56.712Z,3.90
2022-12-12T10:44:10.876Z,4.30
2022-12-12T10:45:32.297Z,4.07
2022-12-12T10:46:41.415Z,4.57
2022-12-12T10:47:43.936Z,4.00
2022-12-12T10:48:49.371Z,4.50
2022-12-12T10:49:58.073Z,3.88
2022-12-12T10:51:05.562Z,4.22
2022-12-12T10:52:17.704Z,4.35
2022-12-12T10:53:23.443Z,4.63
2022-12-12T10:54:28.883Z,4.18
2022-12-12T10:55:40.608Z,4.65
2022-12-12T10:57:06.299Z,5.35
2022-12-12T10:58:09.552Z,4.40
2022-12-12T10:59:22.275Z,4.40
2022-12-12T11:00:35.445Z,4.83
2022-12-12T11:03:14.245Z,5.10
2022-12-12T11:04:17.056Z,5.10
2022-12-12T11:05:23.696Z,4.78
2022-12-12T11:06:32.548Z,5.20
2022-12-12T11:07:38.254Z,5.28
2022-12-12T11:08:54.334Z,4.72
2022-12-12T11:10:01.929Z,5.07
2022-12-12T11:11:09.327Z,4.70
2022-12-12T11:12:16.022Z,4.37
2022-12-12T11:13:18.169Z,4.15
2022-12-12T11:14:28.604Z,4.38
2022-12-12T11:15:40.954Z,4.30
2022-12-12T11:16:45.408Z,4.88
2022-12-12T11:17:50.378Z,4.43
2022-12-12T11:19:02.557Z,4.57
2022-12-12T11:20:09.974Z,4.20
2022-12-12T11:21:15.236Z,4.82
2022-12-12T11:22:18.708Z,4.35
2022-12-12T11:23:26.551Z,4.57
2022-12-12T11:24:34.240Z,4.65
2022-12-12T11:25:38.065Z,4.70
2022-12-12T11:26:46.654Z,4.18
2022-12-12T11:27:49.991Z,4.63
2022-12-12T11:28:56.892Z,4.03
2022-12-12T11:30:03.199Z,4.45
2022-12-12T11:31:09.901Z,4.18
2022-12-12T11:32:15.980Z,4.00
2022-12-12T11:33:22.778Z,4.75
2022-12-12T11:34:29.032Z,4.57
2022-12-12T11:35:38.197Z,4.00
2022-12-12T11:36:43.851Z,9.93
2022-12-12T11:37:49.881Z,4.65
2022-12-12T11:38:56.039Z,4.57
2022-12-12T11:40:00.744Z,4.18
2022-12-12T11:41:06.370Z,4.10
2022-12-12T11:42:21.297Z,4.35
2022-12-12T11:43:26.722Z,4.30
2022-12-12T11:44:35.341Z,3.80
2022-12-12T11:45:38.581Z,3.67
2022-12-12T11:46:42.067Z,4.15
2022-12-12T11:47:47.291Z,3.83
2022-12-12T11:48:59.311Z,3.58
2022-12-12T11:50:07.702Z,3.65
2022-12-12T11:51:14.461Z,4.20
2022-12-12T11:52:19.775Z,4.53
2022-12-12T11:53:23.067Z,4.35
2022-12-12T11:54:31.715Z,4.40
2022-12-12T11:55:46.441Z,4.70
2022-12-12T11:56:55.574Z,4.40
2022-12-12T11:58:11.056Z,4.50
2022-12-12T11:59:47.003Z,4.43
2022-12-12T12:00:58.630Z,3.90
2022-12-12T12:02:25.655Z,3.83
2022-12-12T12:03:34.303Z,4.55
2022-12-12T12:04:53.794Z,3.97
2022-12-12T12:06:14.735Z,4.30
2022-12-12T12:07:34.487Z,3.85
2022-12-12T12:08:48.601Z,4.10
2022-12-12T12:10:02.840Z,4.10
2022-12-12T12:11:17.911Z,4.70
2022-12-12T12:12:29.406Z,4.50
2022-12-12T12:13:48.243Z,4.15
2022-12-12T12:15:08.488Z,4.60
2022-12-12T12:16:21.306Z,4.57
2022-12-12T12:17:36.630Z,4.22
2022-12-12T12:18:56.242Z,4.60
2022-12-12T12:20:08.329Z,3.97
2022-12-12T12:21:29.091Z,4.03
2022-12-12T12:22:43.533Z,4.73
2022-12-12T12:24:00.439Z,4.00
2022-12-12T12:25:21.187Z,4.30
2022-12-12T12:26:35.862Z,4.28
2022-12-12T12:27:47.224Z,3.92
2022-12-12T12:29:27.502Z,3.53
2022-12-12T12:30:37.689Z,3.88
2022-12-12T12:31:48.364Z,4.05
2022-12-12T12:33:24.250Z,3.90
2022-12-12T12:34:37.005Z,3.88
2022-12-12T12:35:53.280Z,3.47
2022-12-12T12:37:15.164Z,3.28
2022-12-12T12:38:26.917Z,3.20
2022-12-12T12:39:45.699Z,3.10
2022-12-12T12:41:07.333Z,3.45
2022-12-12T12:42:26.319Z,3.72
2022-12-12T12:43:45.432Z,2.85
2022-12-12T12:44:52.635Z,2.80
2022-12-12T12:46:02.554Z,3.10
2022-12-12T12:47:21.464Z,3.25
2022-12-12T12:48:30.243Z,3.20
2022-12-12T12:49:39.997Z,2.90
2022-12-12T12:50:46.820Z,3.15
2022-12-12T12:51:54.907Z,3.13
2022-12-12T12:53:05.744Z,3.10
2022-12-12T12:54:19.061Z,3.30
2022-12-12T12:55:25.376Z,3.45
2022-12-12T12:56:30.186Z,3.17
2022-12-12T12:57:40.484Z,3.40
2022-12-12T12:58:46.945Z,2.60
2022-12-12T12:59:52.923Z,2.50
2022-12-12T13:01:02.053Z,2.95
2022-12-12T13:02:15.727Z,2.65
2022-12-12T13:03:23.981Z,2.95
2022-12-12T13:04:30.597Z,2.70
2022-12-12T13:05:41.060Z,2.75
2022-12-12T13:06:49.575Z,3.00
2022-12-12T13:07:58.936Z,2.67
2022-12-12T13:09:08.661Z,2.75
2022-12-12T13:10:20.953Z,2.95
2022-12-12T13:11:33.914Z,3.10
2022-12-12T13:12:44.043Z,2.80
2022-12-12T13:13:49.893Z,2.70
2022-12-12T13:14:57.128Z,2.67
2022-12-12T13:16:05.764Z,3.05
2022-12-12T13:17:16.654Z,2.92
2022-12-12T13:18:20.259Z,2.67
2022-12-12T13:19:32.826Z,2.75
2022-12-12T13:20:40.513Z,3.15
2022-12-12T13:21:49.698Z,2.88
2022-12-12T13:23:04.914Z,3.30
2022-12-12T13:24:15.162Z,2.60
2022-12-12T13:25:28.990Z,2.63
2022-12-12T13:26:40.681Z,3.15
2022-12-12T13:27:48.255Z,3.38
2022-12-12T13:28:59.740Z,3.17
2022-12-12T13:30:06.379Z,2.72
2022-12-12T13:31:31.260Z,2.83
2022-12-12T13:33:09.950Z,2.90
2022-12-12T13:34:16.868Z,2.97
2022-12-12T13:35:25.849Z,2.80
2022-12-12T13:36:34.280Z,3.08
2022-12-12T13:37:46.101Z,3.28
2022-12-12T13:38:52.562Z,3.65
2022-12-12T13:40:00.920Z,4.00
2022-12-12T13:41:06.574Z,3.58
2022-12-12T13:42:11.418Z,3.78
2022-12-12T13:43:30.735Z,3.60
2022-12-12T13:44:37.899Z,3.35
2022-12-12T13:45:46.221Z,3.58
2022-12-12T13:46:49.656Z,3.80
2022-12-12T13:48:01.203Z,3.97
2022-12-12T13:49:17.141Z,3.85
2022-12-12T13:50:23.616Z,4.50
2022-12-12T13:51:37.912Z,4.03
2022-12-12T13:52:42.582Z,4.03
2022-12-12T13:53:45.255Z,4.10
2022-12-12T13:54:49.485Z,4.35
2022-12-12T13:56:30.584Z,5.13
2022-12-12T13:57:34.106Z,4.20
2022-12-12T13:58:38.888Z,4.30
2022-12-12T14:00:20.299Z,4.30
2022-12-12T14:01:40.665Z,4.50
2022-12-12T14:02:46.385Z,4.10
2022-12-12T14:03:49.819Z,5.05
2022-12-12T14:05:08.907Z,4.78
2022-12-12T14:06:13.425Z,4.60
2022-12-12T14:07:20.092Z,4.40
2022-12-12T14:08:28.461Z,5.20
2022-12-12T14:09:47.225Z,4.57
2022-12-12T14:11:01.220Z,5.60
2022-12-12T14:12:06.787Z,5.40
2022-12-12T14:13:40.194Z,4.55
2022-12-12T14:14:54.407Z,5.50
2022-12-12T14:16:07.024Z,4.50
2022-12-12T14:17:21.909Z,5.25
2022-12-12T14:18:30.311Z,4.68
2022-12-12T14:19:37.081Z,4.82
2022-12-12T14:20:55.013Z,4.55
2022-12-12T14:21:58.508Z,4.88
2022-12-12T14:23:10.189Z,5.90
2022-12-12T14:24:48.199Z,5.00
2022-12-12T14:25:52.130Z,5.35
2022-12-12T14:26:55.506Z,5.75
2022-12-12T14:28:14.332Z,5.30
2022-12-12T14:29:29.451Z,4.80
2022-12-12T14:30:57.250Z,5.38
2022-12-12T14:32:32.258Z,5.22
2022-12-12T14:34:05.168Z,5.53
2022-12-12T14:35:25.194Z,5.50
2022-12-12T14:37:10.176Z,5.10
2022-12-12T14:38:30.539Z,5.50
2022-12-12T14:39:59.128Z,5.97
2022-12-12T14:41:05.233Z,5.65
2022-12-12T14:42:16.982Z,5.65
2022-12-12T14:43:26.878Z,5.88
2022-12-12T14:44:36.684Z,5.93
2022-12-12T14:45:53.255Z,6.28
2022-12-12T14:46:59.864Z,6.85
2022-12-12T14:48:21.245Z,6.45
2022-12-12T14:49:24.788Z,5.83
2022-12-12T14:50:28.546Z,5.45
2022-12-12T14:51:35.112Z,5.97
2022-12-12T14:52:38.847Z,5.88
2022-12-12T14:53:49.997Z,5.88
2022-12-12T14:54:53.600Z,6.47
2022-12-12T14:55:59.365Z,6.50
2022-12-12T14:57:02.787Z,6.00
2022-12-12T14:58:05.084Z,5.88
2022-12-12T14:59:10.806Z,6.13
2022-12-12T15:00:19.331Z,6.37
2022-12-12T15:01:31.622Z,5.95
2022-12-12T15:02:39.251Z,5.88
2022-12-12T15:03:45.945Z,6.20
2022-12-12T15:04:55.952Z,7.03
2022-12-12T15:06:21.456Z,6.05
2022-12-12T15:07:27.403Z,6.45
2022-12-12T15:08:30.731Z,5.65